PWSweather.com
Personal Weather Stations
Station Observations
KPASPRIN10
East Vincent, East Vincent, PA 19475

East VincentEast Vincent, PA 19475

Lat: 40.170948, Lon: -75.629681

Elevation: 404

Station Type: Davis VP2

http://www.evweather.com

High Low Average
Temperature 40.0°F4.4°C 29.3°F-1.5°C 34.4°F1.3°C
Dew Point 24.9°F-3.9°C 16.0°F-8.9°C 20.2°F-6.6°C
Winds 18.4 mph 29.6 kmh 3.5 mph 5.6 kmh 10.0 mph WNW16.1 kmh WNW
Wind Gusts 31.1 mph50.1 kmh 4.6 mph7.4 kmh 14.0 mph22.5 kmh
Humidity 73% 42% 57%
Pressure 29.99 in1015.6 mb 29.66 in1004.4 mb -
Precipitation 0.00 in0.0 mm - -
Hour Temp Dew Point Humidity Winds Wind Gusts Pressure Precip Precip Rate Daily Precip Total
12:00 AM 32.3°F0.2°C 25.6°F-3.6°C 76% 4.6 mph W7.4 kmh W 8.1 mph13.0 kmh 29.67 in1004.7 mb - 0.00 in0.0 mm 0.00 in0.0 mm
12:10 AM 32.5°F0.3°C 25.8°F-3.4°C 76% 5.8 mph W9.3 kmh W 6.9 mph11.1 kmh 29.67 in1004.7 mb - 0.00 in0.0 mm 0.00 in0.0 mm
12:20 AM 32.6°F0.3°C 25.6°F-3.6°C 75% 4.6 mph W7.4 kmh W 6.9 mph11.1 kmh 29.66 in1004.4 mb - 0.00 in0.0 mm 0.00 in0.0 mm
12:30 AM 32.5°F0.3°C 25.5°F-3.6°C 75% 4.6 mph WNW7.4 kmh WNW 8.1 mph13.0 kmh 29.66 in1004.4 mb - 0.00 in0.0 mm 0.00 in0.0 mm
12:40 AM 32.3°F0.2°C 24.9°F-3.9°C 74% 5.8 mph W9.3 kmh W 5.8 mph9.3 kmh 29.66 in1004.4 mb - 0.00 in0.0 mm 0.00 in0.0 mm
12:50 AM 32.3°F0.2°C 24.9°F-3.9°C 74% 5.8 mph W9.3 kmh W 10.4 mph16.7 kmh 29.66 in1004.4 mb - 0.00 in0.0 mm 0.00 in0.0 mm
01:00 AM 32.6°F0.3°C 24.9°F-3.9°C 73% 5.8 mph W9.3 kmh W 9.2 mph14.8 kmh 29.66 in1004.4 mb - 0.00 in0.0 mm 0.00 in0.0 mm
01:10 AM 32.9°F0.5°C 24.9°F-3.9°C 72% 6.9 mph W11.1 kmh W 12.7 mph20.4 kmh 29.66 in1004.4 mb - 0.00 in0.0 mm 0.00 in0.0 mm
01:20 AM 33.1°F0.6°C 24.7°F-4.1°C 71% 5.8 mph W9.3 kmh W 9.2 mph14.8 kmh 29.66 in1004.4 mb - 0.00 in0.0 mm 0.00 in0.0 mm
01:30 AM 33.2°F0.7°C 24.1°F-4.4°C 69% 6.9 mph WNW11.1 kmh WNW 8.1 mph13.0 kmh 29.66 in1004.4 mb - 0.00 in0.0 mm 0.00 in0.0 mm
01:40 AM 33.2°F0.7°C 23.8°F-4.6°C 68% 5.8 mph W9.3 kmh W 11.5 mph18.5 kmh 29.66 in1004.4 mb - 0.00 in0.0 mm 0.00 in0.0 mm
01:50 AM 33.3°F0.7°C 23.5°F-4.7°C 67% 8.1 mph W13.0 kmh W 9.2 mph14.8 kmh 29.66 in1004.4 mb - 0.00 in0.0 mm 0.00 in0.0 mm
02:00 AM 33.2°F0.7°C 23.4°F-4.8°C 67% 8.1 mph W13.0 kmh W 12.7 mph20.4 kmh 29.66 in1004.4 mb - 0.00 in0.0 mm 0.00 in0.0 mm
02:10 AM 33.2°F0.7°C 23.0°F-5.0°C 66% 9.2 mph W14.8 kmh W 11.5 mph18.5 kmh 29.66 in1004.4 mb - 0.00 in0.0 mm 0.00 in0.0 mm
02:20 AM 32.9°F0.5°C 22.8°F-5.1°C 66% 6.9 mph W11.1 kmh W 8.1 mph13.0 kmh 29.66 in1004.4 mb - 0.00 in0.0 mm 0.00 in0.0 mm
02:30 AM 32.8°F0.4°C 22.7°F-5.2°C 66% 6.9 mph WNW11.1 kmh WNW 10.4 mph16.7 kmh 29.66 in1004.4 mb - 0.00 in0.0 mm 0.00 in0.0 mm
02:40 AM 32.9°F0.5°C 22.4°F-5.3°C 65% 6.9 mph W11.1 kmh W 9.2 mph14.8 kmh 29.66 in1004.4 mb - 0.00 in0.0 mm 0.00 in0.0 mm
02:50 AM 32.8°F0.4°C 22.3°F-5.4°C 65% 9.2 mph W14.8 kmh W 11.5 mph18.5 kmh 29.66 in1004.4 mb - 0.00 in0.0 mm 0.00 in0.0 mm
03:00 AM 32.8°F0.4°C 22.3°F-5.4°C 65% 12.7 mph WNW20.4 kmh WNW 15.0 mph24.1 kmh 29.66 in1004.4 mb - 0.00 in0.0 mm 0.00 in0.0 mm
03:10 AM 33.0°F0.6°C 22.1°F-5.5°C 64% 8.1 mph WNW13.0 kmh WNW 12.7 mph20.4 kmh 29.66 in1004.4 mb - 0.00 in0.0 mm 0.00 in0.0 mm
03:20 AM 33.0°F0.6°C 22.1°F-5.5°C 64% 10.4 mph W16.7 kmh W 11.5 mph18.5 kmh 29.66 in1004.4 mb - 0.00 in0.0 mm 0.00 in0.0 mm
03:30 AM 32.7°F0.4°C 22.3°F-5.4°C 65% 11.5 mph WNW18.5 kmh WNW 18.4 mph29.6 kmh 29.66 in1004.4 mb - 0.00 in0.0 mm 0.00 in0.0 mm
03:40 AM 32.7°F0.4°C 21.9°F-5.6°C 64% 8.1 mph W13.0 kmh W 11.5 mph18.5 kmh 29.66 in1004.4 mb - 0.00 in0.0 mm 0.00 in0.0 mm
03:50 AM 32.5°F0.3°C 21.7°F-5.7°C 64% 10.4 mph WNW16.7 kmh WNW 11.5 mph18.5 kmh 29.66 in1004.4 mb - 0.00 in0.0 mm 0.00 in0.0 mm
04:00 AM 32.5°F0.3°C 21.7°F-5.7°C 64% 8.1 mph WNW13.0 kmh WNW 10.4 mph16.7 kmh 29.66 in1004.4 mb - 0.00 in0.0 mm 0.00 in0.0 mm
04:10 AM 32.3°F0.2°C 21.5°F-5.8°C 64% 6.9 mph W11.1 kmh W 11.5 mph18.5 kmh 29.66 in1004.4 mb - 0.00 in0.0 mm 0.00 in0.0 mm
04:20 AM 32.2°F0.1°C 21.3°F-5.9°C 64% 9.2 mph WNW14.8 kmh WNW 11.5 mph18.5 kmh 29.67 in1004.7 mb - 0.00 in0.0 mm 0.00 in0.0 mm
04:30 AM 32.1°F0.1°C 21.6°F-5.8°C 65% 8.1 mph W13.0 kmh W 11.5 mph18.5 kmh 29.67 in1004.7 mb - 0.00 in0.0 mm 0.00 in0.0 mm
04:40 AM 31.7°F-0.2°C 21.6°F-5.8°C 66% 8.1 mph WNW13.0 kmh WNW 13.8 mph22.2 kmh 29.67 in1004.7 mb - 0.00 in0.0 mm 0.00 in0.0 mm
04:50 AM 31.9°F-0.1°C 21.5°F-5.8°C 65% 3.5 mph W5.6 kmh W 6.9 mph11.1 kmh 29.68 in1005.1 mb - 0.00 in0.0 mm 0.00 in0.0 mm
05:00 AM 31.7°F-0.2°C 21.6°F-5.8°C 66% 4.6 mph W7.4 kmh W 8.1 mph13.0 kmh 29.68 in1005.1 mb - 0.00 in0.0 mm 0.00 in0.0 mm
05:10 AM 31.5°F-0.3°C 21.4°F-5.9°C 66% 6.9 mph W11.1 kmh W 9.2 mph14.8 kmh 29.68 in1005.1 mb - 0.00 in0.0 mm 0.00 in0.0 mm
05:20 AM 31.1°F-0.5°C 21.4°F-5.9°C 67% 3.5 mph W5.6 kmh W 6.9 mph11.1 kmh 29.69 in1005.4 mb - 0.00 in0.0 mm 0.00 in0.0 mm
05:30 AM 30.7°F-0.7°C 21.4°F-5.9°C 68% 8.1 mph W13.0 kmh W 10.4 mph16.7 kmh 29.69 in1005.4 mb - 0.00 in0.0 mm 0.00 in0.0 mm
05:40 AM 30.6°F-0.8°C 22.0°F-5.6°C 70% 5.8 mph WNW9.3 kmh WNW 10.4 mph16.7 kmh 29.70 in1005.8 mb - 0.00 in0.0 mm 0.00 in0.0 mm
05:50 AM 30.6°F-0.8°C 22.0°F-5.6°C 70% 4.6 mph W7.4 kmh W 9.2 mph14.8 kmh 29.70 in1005.8 mb - 0.00 in0.0 mm 0.00 in0.0 mm
06:00 AM 30.5°F-0.8°C 22.5°F-5.3°C 72% 8.1 mph W13.0 kmh W 12.7 mph20.4 kmh 29.70 in1005.8 mb - 0.00 in0.0 mm 0.00 in0.0 mm
06:10 AM 30.5°F-0.8°C 22.5°F-5.3°C 72% 5.8 mph WNW9.3 kmh WNW 6.9 mph11.1 kmh 29.71 in1006.1 mb - 0.00 in0.0 mm 0.00 in0.0 mm
06:20 AM 30.7°F-0.7°C 22.8°F-5.1°C 72% 6.9 mph NW11.1 kmh NW 12.7 mph20.4 kmh 29.71 in1006.1 mb - 0.00 in0.0 mm 0.00 in0.0 mm
06:30 AM 31.4°F-0.3°C 23.1°F-4.9°C 71% 6.9 mph WNW11.1 kmh WNW 11.5 mph18.5 kmh 29.72 in1006.4 mb - 0.00 in0.0 mm 0.00 in0.0 mm
06:40 AM 31.4°F-0.3°C 23.1°F-4.9°C 71% 6.9 mph WNW11.1 kmh WNW 9.2 mph14.8 kmh 29.73 in1006.8 mb - 0.00 in0.0 mm 0.00 in0.0 mm
06:50 AM 31.2°F-0.4°C 22.9°F-5.1°C 71% 4.6 mph WNW7.4 kmh WNW 6.9 mph11.1 kmh 29.73 in1006.8 mb - 0.00 in0.0 mm 0.00 in0.0 mm
07:00 AM 31.1°F-0.5°C 23.1°F-4.9°C 72% 6.9 mph WNW11.1 kmh WNW 13.8 mph22.2 kmh 29.73 in1006.8 mb - 0.00 in0.0 mm 0.00 in0.0 mm
07:10 AM 31.2°F-0.4°C 23.2°F-4.9°C 72% 8.1 mph NW13.0 kmh NW 11.5 mph18.5 kmh 29.73 in1006.8 mb - 0.00 in0.0 mm 0.00 in0.0 mm
07:20 AM 31.2°F-0.4°C 23.3°F-4.8°C 72% 5.8 mph WNW9.3 kmh WNW 8.1 mph13.0 kmh 29.74 in1007.1 mb - 0.00 in0.0 mm 0.00 in0.0 mm
07:30 AM 31.5°F-0.3°C 23.2°F-4.9°C 71% 8.1 mph WNW13.0 kmh WNW 9.2 mph14.8 kmh 29.75 in1007.5 mb - 0.00 in0.0 mm 0.00 in0.0 mm
07:40 AM 31.7°F-0.2°C 23.4°F-4.8°C 71% 8.1 mph NW13.0 kmh NW 15.0 mph24.1 kmh 29.75 in1007.5 mb - 0.00 in0.0 mm 0.00 in0.0 mm
07:50 AM 31.5°F-0.3°C 23.5°F-4.7°C 72% 8.1 mph NW13.0 kmh NW 11.5 mph18.5 kmh 29.76 in1007.8 mb - 0.00 in0.0 mm 0.00 in0.0 mm
08:00 AM 31.5°F-0.3°C 23.5°F-4.7°C 72% 8.1 mph WNW13.0 kmh WNW 13.8 mph22.2 kmh 29.76 in1007.8 mb - 0.00 in0.0 mm 0.00 in0.0 mm
08:10 AM 31.6°F-0.2°C 23.3°F-4.8°C 71% 12.7 mph W20.4 kmh W 19.6 mph31.5 kmh 29.77 in1008.1 mb - 0.00 in0.0 mm 0.00 in0.0 mm
08:20 AM 32.1°F0.1°C 23.4°F-4.8°C 70% 8.1 mph NW13.0 kmh NW 9.2 mph14.8 kmh 29.77 in1008.1 mb - 0.00 in0.0 mm 0.00 in0.0 mm
08:30 AM 32.3°F0.2°C 23.2°F-4.9°C 69% 8.1 mph NW13.0 kmh NW 11.5 mph18.5 kmh 29.78 in1008.5 mb - 0.00 in0.0 mm 0.00 in0.0 mm
08:40 AM 32.6°F0.3°C 23.2°F-4.9°C 68% 10.4 mph NW16.7 kmh NW 16.1 mph25.9 kmh 29.78 in1008.5 mb - 0.00 in0.0 mm 0.00 in0.0 mm
08:50 AM 32.9°F0.5°C 23.5°F-4.7°C 68% 8.1 mph WNW13.0 kmh WNW 11.5 mph18.5 kmh 29.79 in1008.8 mb - 0.00 in0.0 mm 0.00 in0.0 mm
09:00 AM 33.1°F0.6°C 23.7°F-4.6°C 68% 9.2 mph NW14.8 kmh NW 13.8 mph22.2 kmh 29.80 in1009.1 mb - 0.00 in0.0 mm 0.00 in0.0 mm
09:10 AM 33.1°F0.6°C 22.6°F-5.2°C 65% 8.1 mph NNW13.0 kmh NNW 15.0 mph24.1 kmh 29.80 in1009.1 mb - 0.00 in0.0 mm 0.00 in0.0 mm
09:20 AM 33.2°F0.7°C 22.3°F-5.4°C 64% 8.1 mph NNW13.0 kmh NNW 15.0 mph24.1 kmh 29.80 in1009.1 mb - 0.00 in0.0 mm 0.00 in0.0 mm
09:30 AM 33.4°F0.8°C 23.6°F-4.7°C 67% 5.8 mph N9.3 kmh N 5.8 mph9.3 kmh 29.80 in1009.1 mb - 0.00 in0.0 mm 0.00 in0.0 mm
09:40 AM 33.3°F0.7°C 23.9°F-4.5°C 68% 3.5 mph NW5.6 kmh NW 4.6 mph7.4 kmh 29.81 in1009.5 mb - 0.00 in0.0 mm 0.00 in0.0 mm
09:50 AM 33.3°F0.7°C 20.1°F-6.6°C 58% 12.7 mph WNW20.4 kmh WNW 16.1 mph25.9 kmh 29.81 in1009.5 mb - 0.00 in0.0 mm 0.00 in0.0 mm
10:00 AM 33.5°F0.8°C 19.0°F-7.2°C 55% 8.1 mph NW13.0 kmh NW 10.4 mph16.7 kmh 29.82 in1009.8 mb - 0.00 in0.0 mm 0.00 in0.0 mm
10:10 AM 34.6°F1.4°C 20.1°F-6.6°C 55% 8.1 mph NW13.0 kmh NW 9.2 mph14.8 kmh 29.82 in1009.8 mb - 0.00 in0.0 mm 0.00 in0.0 mm
10:20 AM 35.5°F1.9°C 19.1°F-7.2°C 51% 13.8 mph NW22.2 kmh NW 24.2 mph38.9 kmh 29.82 in1009.8 mb - 0.00 in0.0 mm 0.00 in0.0 mm
10:30 AM 35.7°F2.1°C 18.9°F-7.3°C 50% 11.5 mph WNW18.5 kmh WNW 18.4 mph29.6 kmh 29.82 in1009.8 mb - 0.00 in0.0 mm 0.00 in0.0 mm
10:40 AM 35.9°F2.2°C 19.0°F-7.2°C 50% 11.5 mph NW18.5 kmh NW 19.6 mph31.5 kmh 29.82 in1009.8 mb - 0.00 in0.0 mm 0.00 in0.0 mm
10:50 AM 36.0°F2.2°C 19.1°F-7.2°C 50% 11.5 mph NW18.5 kmh NW 16.1 mph25.9 kmh 29.82 in1009.8 mb - 0.00 in0.0 mm 0.00 in0.0 mm
11:00 AM 36.1°F2.3°C 18.3°F-7.6°C 48% 9.2 mph NW14.8 kmh NW 13.8 mph22.2 kmh 29.83 in1010.2 mb - 0.00 in0.0 mm 0.00 in0.0 mm
11:10 AM 36.8°F2.7°C 19.4°F-7.0°C 49% 12.7 mph NW20.4 kmh NW 25.3 mph40.7 kmh 29.84 in1010.5 mb - 0.00 in0.0 mm 0.00 in0.0 mm
11:20 AM 36.6°F2.6°C 19.2°F-7.1°C 49% 10.4 mph NW16.7 kmh NW 19.6 mph31.5 kmh 29.84 in1010.5 mb - 0.00 in0.0 mm 0.00 in0.0 mm
11:30 AM 36.8°F2.7°C 20.4°F-6.4°C 51% 16.1 mph NW25.9 kmh NW 19.6 mph31.5 kmh 29.84 in1010.5 mb - 0.00 in0.0 mm 0.00 in0.0 mm
11:40 AM 36.7°F2.6°C 17.8°F-7.9°C 46% 12.7 mph NNW20.4 kmh NNW 13.8 mph22.2 kmh 29.84 in1010.5 mb - 0.00 in0.0 mm 0.00 in0.0 mm
11:50 AM 37.2°F2.9°C 20.7°F-6.3°C 51% 15.0 mph NW24.1 kmh NW 18.4 mph29.6 kmh 29.84 in1010.5 mb - 0.00 in0.0 mm 0.00 in0.0 mm
12:00 PM 37.5°F3.1°C 20.1°F-6.6°C 49% 16.1 mph W25.9 kmh W 19.6 mph31.5 kmh 29.84 in1010.5 mb - 0.00 in0.0 mm 0.00 in0.0 mm
12:10 PM 36.8°F2.7°C 19.4°F-7.0°C 49% 12.7 mph NW20.4 kmh NW 17.3 mph27.8 kmh 29.84 in1010.5 mb - 0.00 in0.0 mm 0.00 in0.0 mm
12:20 PM 36.5°F2.5°C 18.6°F-7.4°C 48% 13.8 mph NW22.2 kmh NW 18.4 mph29.6 kmh 29.84 in1010.5 mb - 0.00 in0.0 mm 0.00 in0.0 mm
12:30 PM 36.8°F2.7°C 18.9°F-7.3°C 48% 11.5 mph NW18.5 kmh NW 19.6 mph31.5 kmh 29.84 in1010.5 mb - 0.00 in0.0 mm 0.00 in0.0 mm
12:40 PM 36.5°F2.5°C 18.6°F-7.4°C 48% 18.4 mph W29.6 kmh W 23.0 mph37.0 kmh 29.84 in1010.5 mb - 0.00 in0.0 mm 0.00 in0.0 mm
12:50 PM 37.9°F3.3°C 19.4°F-7.0°C 47% 11.5 mph WNW18.5 kmh WNW 15.0 mph24.1 kmh 29.84 in1010.5 mb - 0.00 in0.0 mm 0.00 in0.0 mm
01:00 PM 38.6°F3.7°C 19.6°F-6.9°C 46% 12.7 mph W20.4 kmh W 31.1 mph50.1 kmh 29.84 in1010.5 mb - 0.00 in0.0 mm 0.00 in0.0 mm
01:10 PM 38.9°F3.8°C 20.8°F-6.2°C 48% 15.0 mph WNW24.1 kmh WNW 21.9 mph35.2 kmh 29.84 in1010.5 mb - 0.00 in0.0 mm 0.00 in0.0 mm
01:20 PM 39.5°F4.2°C 20.9°F-6.2°C 47% 16.1 mph NW25.9 kmh NW 19.6 mph31.5 kmh 29.84 in1010.5 mb - 0.00 in0.0 mm 0.00 in0.0 mm
01:30 PM 39.1°F3.9°C 20.0°F-6.7°C 46% 10.4 mph NW16.7 kmh NW 11.5 mph18.5 kmh 29.84 in1010.5 mb - 0.00 in0.0 mm 0.00 in0.0 mm
01:40 PM 37.8°F3.2°C 20.8°F-6.2°C 50% 13.8 mph NW22.2 kmh NW 24.2 mph38.9 kmh 29.85 in1010.8 mb - 0.00 in0.0 mm 0.00 in0.0 mm
01:50 PM 38.1°F3.4°C 20.6°F-6.3°C 49% 10.4 mph W16.7 kmh W 16.1 mph25.9 kmh 29.84 in1010.5 mb - 0.00 in0.0 mm 0.00 in0.0 mm
02:00 PM 38.0°F3.3°C 19.5°F-6.9°C 47% 12.7 mph NW20.4 kmh NW 18.4 mph29.6 kmh 29.84 in1010.5 mb - 0.00 in0.0 mm 0.00 in0.0 mm
02:10 PM 38.3°F3.5°C 20.8°F-6.2°C 49% 12.7 mph WNW20.4 kmh WNW 20.7 mph33.3 kmh 29.85 in1010.8 mb - 0.00 in0.0 mm 0.00 in0.0 mm
02:20 PM 37.5°F3.1°C 20.1°F-6.6°C 49% 16.1 mph NW25.9 kmh NW 23.0 mph37.0 kmh 29.85 in1010.8 mb - 0.00 in0.0 mm 0.00 in0.0 mm
02:30 PM 37.7°F3.2°C 20.3°F-6.5°C 49% 12.7 mph NW20.4 kmh NW 15.0 mph24.1 kmh 29.84 in1010.5 mb - 0.00 in0.0 mm 0.00 in0.0 mm
02:40 PM 38.0°F3.3°C 22.0°F-5.6°C 52% 15.0 mph W24.1 kmh W 26.5 mph42.6 kmh 29.84 in1010.5 mb - 0.00 in0.0 mm 0.00 in0.0 mm
02:50 PM 37.6°F3.1°C 20.6°F-6.3°C 50% 11.5 mph NW18.5 kmh NW 16.1 mph25.9 kmh 29.84 in1010.5 mb - 0.00 in0.0 mm 0.00 in0.0 mm
03:00 PM 37.7°F3.2°C 21.2°F-6.0°C 51% 11.5 mph NW18.5 kmh NW 24.2 mph38.9 kmh 29.84 in1010.5 mb - 0.00 in0.0 mm 0.00 in0.0 mm
03:10 PM 38.0°F3.3°C 21.9°F-5.6°C 52% 13.8 mph W22.2 kmh W 19.6 mph31.5 kmh 29.84 in1010.5 mb - 0.00 in0.0 mm 0.00 in0.0 mm
03:20 PM 38.0°F3.3°C 21.0°F-6.1°C 50% 12.7 mph NNW20.4 kmh NNW 20.7 mph33.3 kmh 29.85 in1010.8 mb - 0.00 in0.0 mm 0.00 in0.0 mm
03:30 PM 37.7°F3.2°C 20.2°F-6.6°C 49% 10.4 mph NW16.7 kmh NW 16.1 mph25.9 kmh 29.85 in1010.8 mb - 0.00 in0.0 mm 0.00 in0.0 mm
03:40 PM 37.6°F3.1°C 20.1°F-6.6°C 49% 10.4 mph W16.7 kmh W 16.1 mph25.9 kmh 29.85 in1010.8 mb - 0.00 in0.0 mm 0.00 in0.0 mm
03:50 PM 37.7°F3.2°C 20.2°F-6.6°C 49% 9.2 mph WNW14.8 kmh WNW 16.1 mph25.9 kmh 29.85 in1010.8 mb - 0.00 in0.0 mm 0.00 in0.0 mm
04:00 PM 38.2°F3.4°C 20.7°F-6.3°C 49% 12.7 mph W20.4 kmh W 18.4 mph29.6 kmh 29.85 in1010.8 mb - 0.00 in0.0 mm 0.00 in0.0 mm
04:10 PM 40.0°F4.4°C 21.9°F-5.6°C 48% 10.4 mph WNW16.7 kmh WNW 16.1 mph25.9 kmh 29.85 in1010.8 mb - 0.00 in0.0 mm 0.00 in0.0 mm
04:20 PM 39.7°F4.3°C 21.1°F-6.1°C 47% 16.1 mph WNW25.9 kmh WNW 23.0 mph37.0 kmh 29.86 in1011.2 mb - 0.00 in0.0 mm 0.00 in0.0 mm
04:30 PM 38.6°F3.7°C 19.1°F-7.2°C 45% 13.8 mph NW22.2 kmh NW 26.5 mph42.6 kmh 29.86 in1011.2 mb - 0.00 in0.0 mm 0.00 in0.0 mm
04:40 PM 38.3°F3.5°C 20.3°F-6.5°C 48% 8.1 mph W13.0 kmh W 13.8 mph22.2 kmh 29.86 in1011.2 mb - 0.00 in0.0 mm 0.00 in0.0 mm
04:50 PM 38.8°F3.8°C 20.2°F-6.6°C 47% 12.7 mph WNW20.4 kmh WNW 19.6 mph31.5 kmh 29.87 in1011.5 mb - 0.00 in0.0 mm 0.00 in0.0 mm
05:00 PM 39.1°F3.9°C 19.5°F-6.9°C 45% 13.8 mph NW22.2 kmh NW 19.6 mph31.5 kmh 29.87 in1011.5 mb - 0.00 in0.0 mm 0.00 in0.0 mm
05:10 PM 38.7°F3.7°C 19.7°F-6.8°C 46% 13.8 mph WNW22.2 kmh WNW 13.8 mph22.2 kmh 29.87 in1011.5 mb - 0.00 in0.0 mm 0.00 in0.0 mm
05:20 PM 39.1°F3.9°C 18.5°F-7.5°C 43% 9.2 mph NNW14.8 kmh NNW 16.1 mph25.9 kmh 29.87 in1011.5 mb - 0.00 in0.0 mm 0.00 in0.0 mm
05:30 PM 39.3°F4.1°C 18.6°F-7.4°C 43% 11.5 mph W18.5 kmh W 19.6 mph31.5 kmh 29.88 in1011.9 mb - 0.00 in0.0 mm 0.00 in0.0 mm
05:40 PM 39.0°F3.9°C 17.8°F-7.9°C 42% 13.8 mph NW22.2 kmh NW 16.1 mph25.9 kmh 29.88 in1011.9 mb - 0.00 in0.0 mm 0.00 in0.0 mm
05:50 PM 38.7°F3.7°C 18.1°F-7.7°C 43% 8.1 mph NW13.0 kmh NW 18.4 mph29.6 kmh 29.89 in1012.2 mb - 0.00 in0.0 mm 0.00 in0.0 mm
06:00 PM 38.4°F3.6°C 17.9°F-7.8°C 43% 16.1 mph WNW25.9 kmh WNW 20.7 mph33.3 kmh 29.89 in1012.2 mb - 0.00 in0.0 mm 0.00 in0.0 mm
06:10 PM 38.4°F3.6°C 17.2°F-8.2°C 42% 12.7 mph WNW20.4 kmh WNW 17.3 mph27.8 kmh 29.89 in1012.2 mb - 0.00 in0.0 mm 0.00 in0.0 mm
06:20 PM 38.3°F3.5°C 17.2°F-8.2°C 42% 12.7 mph W20.4 kmh W 15.0 mph24.1 kmh 29.89 in1012.2 mb - 0.00 in0.0 mm 0.00 in0.0 mm
06:30 PM 38.2°F3.4°C 17.6°F-8.0°C 43% 10.4 mph W16.7 kmh W 13.8 mph22.2 kmh 29.90 in1012.5 mb - 0.00 in0.0 mm 0.00 in0.0 mm
06:40 PM 38.0°F3.3°C 16.9°F-8.4°C 42% 8.1 mph NW13.0 kmh NW 11.5 mph18.5 kmh 29.90 in1012.5 mb - 0.00 in0.0 mm 0.00 in0.0 mm
06:50 PM 37.5°F3.1°C 17.0°F-8.3°C 43% 13.8 mph WNW22.2 kmh WNW 21.9 mph35.2 kmh 29.90 in1012.5 mb - 0.00 in0.0 mm 0.00 in0.0 mm
07:00 PM 36.7°F2.6°C 16.8°F-8.4°C 44% 12.7 mph WNW20.4 kmh WNW 19.6 mph31.5 kmh 29.91 in1012.9 mb - 0.00 in0.0 mm 0.00 in0.0 mm
07:10 PM 36.4°F2.4°C 16.0°F-8.9°C 43% 11.5 mph WNW18.5 kmh WNW 11.5 mph18.5 kmh 29.91 in1012.9 mb - 0.00 in0.0 mm 0.00 in0.0 mm
07:20 PM 36.1°F2.3°C 16.8°F-8.4°C 45% 9.2 mph NW14.8 kmh NW 11.5 mph18.5 kmh 29.92 in1013.2 mb - 0.00 in0.0 mm 0.00 in0.0 mm
07:30 PM 35.8°F2.1°C 16.5°F-8.6°C 45% 11.5 mph WNW18.5 kmh WNW 18.4 mph29.6 kmh 29.92 in1013.2 mb - 0.00 in0.0 mm 0.00 in0.0 mm
07:40 PM 35.5°F1.9°C 17.3°F-8.2°C 47% 11.5 mph WNW18.5 kmh WNW 17.3 mph27.8 kmh 29.93 in1013.5 mb - 0.00 in0.0 mm 0.00 in0.0 mm
07:50 PM 35.3°F1.8°C 17.1°F-8.3°C 47% 10.4 mph WNW16.7 kmh WNW 19.6 mph31.5 kmh 29.93 in1013.5 mb - 0.00 in0.0 mm 0.00 in0.0 mm
08:00 PM 35.1°F1.7°C 17.4°F-8.1°C 48% 8.1 mph W13.0 kmh W 17.3 mph27.8 kmh 29.93 in1013.5 mb - 0.00 in0.0 mm 0.00 in0.0 mm
08:10 PM 34.8°F1.6°C 17.6°F-8.0°C 49% 10.4 mph W16.7 kmh W 12.7 mph20.4 kmh 29.93 in1013.5 mb - 0.00 in0.0 mm 0.00 in0.0 mm
08:20 PM 34.8°F1.6°C 17.6°F-8.0°C 49% 10.4 mph NW16.7 kmh NW 12.7 mph20.4 kmh 29.93 in1013.5 mb - 0.00 in0.0 mm 0.00 in0.0 mm
08:30 PM 34.6°F1.4°C 17.3°F-8.2°C 49% 6.9 mph W11.1 kmh W 6.9 mph11.1 kmh 29.94 in1013.9 mb - 0.00 in0.0 mm 0.00 in0.0 mm
08:40 PM 34.4°F1.3°C 17.7°F-7.9°C 50% 9.2 mph W14.8 kmh W 10.4 mph16.7 kmh 29.94 in1013.9 mb - 0.00 in0.0 mm 0.00 in0.0 mm
08:50 PM 34.1°F1.2°C 18.3°F-7.6°C 52% 9.2 mph W14.8 kmh W 11.5 mph18.5 kmh 29.94 in1013.9 mb - 0.00 in0.0 mm 0.00 in0.0 mm
09:00 PM 33.8°F1.0°C 18.5°F-7.5°C 53% 10.4 mph WNW16.7 kmh WNW 12.7 mph20.4 kmh 29.95 in1014.2 mb - 0.00 in0.0 mm 0.00 in0.0 mm
09:10 PM 33.5°F0.8°C 18.6°F-7.4°C 54% 9.2 mph W14.8 kmh W 10.4 mph16.7 kmh 29.95 in1014.2 mb - 0.00 in0.0 mm 0.00 in0.0 mm
09:20 PM 33.4°F0.8°C 18.5°F-7.5°C 54% 8.1 mph WNW13.0 kmh WNW 13.8 mph22.2 kmh 29.95 in1014.2 mb - 0.00 in0.0 mm 0.00 in0.0 mm
09:30 PM 33.3°F0.7°C 18.0°F-7.8°C 53% 13.8 mph NW22.2 kmh NW 18.4 mph29.6 kmh 29.95 in1014.2 mb - 0.00 in0.0 mm 0.00 in0.0 mm
09:40 PM 33.2°F0.7°C 17.4°F-8.1°C 52% 15.0 mph NW24.1 kmh NW 18.4 mph29.6 kmh 29.95 in1014.2 mb - 0.00 in0.0 mm 0.00 in0.0 mm
09:50 PM 32.9°F0.5°C 17.2°F-8.2°C 52% 11.5 mph WNW18.5 kmh WNW 16.1 mph25.9 kmh 29.96 in1014.6 mb - 0.00 in0.0 mm 0.00 in0.0 mm
10:00 PM 32.6°F0.3°C 17.3°F-8.2°C 53% 11.5 mph WNW18.5 kmh WNW 11.5 mph18.5 kmh 29.96 in1014.6 mb - 0.00 in0.0 mm 0.00 in0.0 mm
10:10 PM 32.2°F0.1°C 17.0°F-8.3°C 53% 11.5 mph WNW18.5 kmh WNW 19.6 mph31.5 kmh 29.97 in1014.9 mb - 0.00 in0.0 mm 0.00 in0.0 mm
10:20 PM 31.9°F-0.1°C 16.7°F-8.5°C 53% 11.5 mph NW18.5 kmh NW 20.7 mph33.3 kmh 29.97 in1014.9 mb - 0.00 in0.0 mm 0.00 in0.0 mm
10:30 PM 31.6°F-0.2°C 16.4°F-8.7°C 53% 11.5 mph NW18.5 kmh NW 18.4 mph29.6 kmh 29.98 in1015.2 mb - 0.00 in0.0 mm 0.00 in0.0 mm
10:40 PM 31.4°F-0.3°C 16.7°F-8.5°C 54% 5.8 mph WNW9.3 kmh WNW 9.2 mph14.8 kmh 29.98 in1015.2 mb - 0.00 in0.0 mm 0.00 in0.0 mm
10:50 PM 31.0°F-0.6°C 17.1°F-8.3°C 56% 6.9 mph WNW11.1 kmh WNW 9.2 mph14.8 kmh 29.98 in1015.2 mb - 0.00 in0.0 mm 0.00 in0.0 mm
11:00 PM 30.6°F-0.8°C 17.2°F-8.2°C 57% 9.2 mph WNW14.8 kmh WNW 10.4 mph16.7 kmh 29.98 in1015.2 mb - 0.00 in0.0 mm 0.00 in0.0 mm
11:10 PM 30.6°F-0.8°C 17.6°F-8.0°C 58% 3.5 mph W5.6 kmh W 5.8 mph9.3 kmh 29.98 in1015.2 mb - 0.00 in0.0 mm 0.00 in0.0 mm
11:20 PM 30.5°F-0.8°C 17.5°F-8.1°C 58% 4.6 mph W7.4 kmh W 5.8 mph9.3 kmh 29.99 in1015.6 mb - 0.00 in0.0 mm 0.00 in0.0 mm
11:30 PM 30.3°F-0.9°C 17.7°F-7.9°C 59% 6.9 mph W11.1 kmh W 9.2 mph14.8 kmh 29.99 in1015.6 mb - 0.00 in0.0 mm 0.00 in0.0 mm
11:40 PM 30.0°F-1.1°C 17.8°F-7.9°C 60% 4.6 mph W7.4 kmh W 8.1 mph13.0 kmh 29.99 in1015.6 mb - 0.00 in0.0 mm 0.00 in0.0 mm
11:50 PM 29.9°F-1.2°C 17.3°F-8.2°C 59% 5.8 mph WNW9.3 kmh WNW 11.5 mph18.5 kmh 29.98 in1015.2 mb - 0.00 in0.0 mm 0.00 in0.0 mm